• Join FlightAware (Why Join?)
  • Login
  • US Flag 
12:35PM EDT


 

Airport Tracker/Info


-or-


 

Live Flight TrackerFlight Track Log ✈ N53NW ✈ 21-Oct-2013 ✈ KBFI - KLAS

Flight Track Log - Related Links

Times and Time Zones

All times are in EDT time to prevent confusion due to time zone crossing. See the N53NW flight status page for this flight to view local times or setup timezone preferences in your user account.

Time Position Orientation Groundspeed Altitude Reporting Facility
EDT Latitude Longitude Course Direction KTS MPH feet Rate Location/Type
02:00PM 47.5117 -122.2878 148° Southeast 205 236 1,000  Level Seattle Center
02:00PM 47.4828 -122.2611 148° Southeast 220 253 1,800 1,440 Climbing Seattle Center
02:01PM 47.4308 -122.2144 149° Southeast 229 264 3,200 1,500 Climbing Seattle Center
02:02PM 47.3722 -122.1944 167° South 246 283 4,800 2,100 Climbing Seattle Center
02:03PM 47.3372 -122.1908 176° South 234 269 6,400 3,000 Climbing Seattle Center
02:03PM 47.3044 -122.1894 178° South 240 276 7,900 3,240 Climbing Seattle Center
02:04PM 47.2625 -122.1847 176° South 248 285 9,700 3,000 Climbing Seattle Center
02:05PM 47.1903 -122.1764 176° South 259 298 12,700 2,940 Climbing Seattle Center
02:06PM 47.1169 -122.1678 175° South 264 304 15,700 2,400 Climbing Seattle Center
02:07PM 47.0433 -122.1336 162° South 288 331 17,700 1,740 Climbing Seattle Center
02:08PM 46.9614 -122.0883 159° South 316 364 19,300 1,740 Climbing Seattle Center
02:09PM 46.8711 -122.0383 159° South 342 394 21,300 1,920 Climbing Seattle Center
02:10PM 46.7783 -121.9875 159° South 354 407 23,300 1,920 Climbing Seattle Center
02:11PM 46.6853 -121.9336 158° South 362 417 25,300 1,920 Climbing Seattle Center
02:12PM 46.5894 -121.8814 159° South 367 422 27,300 1,920 Climbing Seattle Center
02:13PM 46.4939 -121.8281 159° South 370 426 29,300 1,920 Climbing Seattle Center
02:14PM 46.4006 -121.7753 159° South 362 417 31,300 1,860 Climbing Seattle Center
02:15PM 46.2861 -121.7122 159° South 367 422 33,200 1,500 Climbing Seattle Center
02:16PM 46.1994 -121.6647 159° South 374 430 34,400 1,260 Climbing Seattle Center
02:17PM 46.1019 -121.6103 159° South 378 435 35,800 1,320 Climbing Seattle Center
02:18PM 46.0050 -121.5586 160° South 374 430 37,200 1,320 Climbing Seattle Center
02:19PM 45.9094 -121.5053 159° South 370 426 38,500 1,080 Climbing Seattle Center
02:20PM 45.8136 -121.4533 159° South 370 426 39,500 1,080 Climbing Seattle Center
02:21PM 45.6975 -121.3911 159° South 372 428 40,700 720 Climbing Seattle Center
02:22PM 45.5992 -121.3392 160° South 376 433 41,000 120 Climbing Seattle Center
02:23PM 45.4950 -121.2839 160° South 390 449 41,000  Level Seattle Center
02:24PM 45.3883 -121.2278 160° South 403 464 41,000  Level Seattle Center
02:25PM 45.2833 -121.1706 159° South 407 468 41,000  Level Seattle Center
02:26PM 45.1783 -121.1153 160° South 406 467 41,000  Level Seattle Center
02:27PM 45.0708 -121.0589 160° South 411 473 41,000  Level Seattle Center
02:28PM 44.9650 -121.0036 160° South 408 470 41,000  Level Seattle Center
02:29PM 44.8583 -120.9472 159° South 411 473 41,000  Level Seattle Center
02:30PM 44.7297 -120.8806 160° South 414 476 41,000  Level Seattle Center
02:31PM 44.6228 -120.8256 160° South 413 475 41,000  Level Seattle Center
02:32PM 44.5272 -120.7767 160° South 412 474 41,000  Level Seattle Center
02:33PM 44.4183 -120.7200 160° South 413 475 41,000  Level Seattle Center
02:34PM 44.3008 -120.6600 160° South 415 478 41,000  Level Seattle Center
02:35PM 44.1933 -120.6058 160° South 413 475 41,000  Level Seattle Center
02:36PM 44.0867 -120.5522 160° South 410 472 41,000  Level Seattle Center
02:37PM 43.9797 -120.4981 160° South 411 473 41,000  Level Seattle Center
02:38PM 43.8731 -120.4447 160° South 411 473 41,000  Level Seattle Center
02:39PM 43.7664 -120.3903 160° South 410 472 41,000  Level Seattle Center
02:40PM 43.6378 -120.3272 160° South 411 473 41,000  Level Seattle Center
02:41PM 43.5397 -120.2797 161° South 410 472 41,000  Level Seattle Center
02:42PM 43.4331 -120.2264 160° South 408 470 41,000  Level Seattle Center
02:43PM 43.3256 -120.1744 161° South 409 471 41,000  Level Seattle Center
02:44PM 43.2189 -120.1214 160° South 409 471 41,000  Level Seattle Center
02:46PM 43.1111 -120.0697 161° South 409 471 41,000  Level Seattle Center
02:47PM 43.0039 -120.0181 161° South 408 470 41,000  Level Seattle Center
02:48PM 42.8761 -119.9547 160° South 408 470 41,000  Level Seattle Center
02:49PM 42.7681 -119.9031 161° South 410 472 41,000  Level Seattle Center
02:50PM 42.6614 -119.8531 161° South 408 470 41,000  Level Seattle Center
02:51PM 42.5531 -119.8000 160° South 412 474 41,000  Level Seattle Center
02:52PM 42.4456 -119.7483 160° South 410 472 41,000  Level Seattle Center
02:53PM 42.3361 -119.6967 161° South 414 476 41,000  Level Seattle Center
02:54PM 42.2264 -119.6439 160° South 419 482 41,000  Level Seattle Center
02:55PM 42.1164 -119.5931 161° South 418 481 41,000  Level Seattle Center
02:56PM 42.0069 -119.5417 161° South 416 479 41,000  Level Seattle Center
02:57PM 41.9008 -119.4911 160° South 407 468 41,000  Level Seattle Center
02:58PM 41.7925 -119.4400 161° South 411 473 41,000  Level Seattle Center
02:59PM 41.6856 -119.3906 161° South 408 470 41,000  Level Seattle Center
02:59PM 41.6078 -119.3544 161° South 413 475 41,000  Level Salt Lake Center
03:00PM 41.4881 -119.2994 161° South 410 472 41,000  Level Salt Lake Center
03:01PM 41.3856 -119.2514 161° South 408 470 41,000  Level Salt Lake Center
03:02PM 41.2664 -119.1961 161° South 407 468 41,000  Level Salt Lake Center
03:04PM 41.1650 -119.1483 160° South 404 465 41,000  Level Salt Lake Center
03:05PM 41.0478 -119.0947 161° South 405 466 41,000  Level Oakland Center
03:06PM 40.9425 -119.0483 162° South 406 467 41,000  Level Salt Lake Center
03:07PM 40.8217 -118.9944 161° South 409 471 41,000  Level Salt Lake Center
03:08PM 40.7125 -118.9422 160° South 408 470 41,000  Level Oakland Center
03:09PM 40.6061 -118.8950 161° South 404 465 41,000  Level Oakland Center
03:10PM 40.5000 -118.8478 161° South 403 464 41,000  Level Oakland Center
03:11PM 40.3936 -118.8011 162° South 402 463 41,000  Level Oakland Center
03:12PM 40.2881 -118.7536 161° South 402 463 41,000  Level Oakland Center
03:13PM 40.1811 -118.7053 161° South 404 465 41,000  Level Oakland Center
03:14PM 40.0742 -118.6583 161° South 403 464 41,000  Level Salt Lake Center
03:15PM 39.9472 -118.6022 161° South 400 460 41,000  Level Salt Lake Center
03:16PM 39.8411 -118.5550 161° South 402 463 41,000  Level Oakland Center
03:17PM 39.7344 -118.5086 162° South 402 463 41,000  Level Oakland Center
03:18PM 39.6278 -118.4600 161° South 403 464 41,000  Level Oakland Center
03:19PM 39.5194 -118.4133 162° South 403 464 41,000  Level Oakland Center
03:20PM 39.4106 -118.3661 161° South 406 467 41,000  Level Oakland Center
03:21PM 39.3031 -118.3214 162° South 404 465 41,000  Level Oakland Center
03:22PM 39.1956 -118.2742 161° South 404 465 41,000  Level Oakland Center
03:23PM 39.0889 -118.2264 161° South 404 465 41,000  Level Oakland Center
03:24PM 38.9872 -118.1656 155° Southeast 402 463 41,000  Level Oakland Center
03:25PM 38.8847 -118.1078 156° South 401 461 41,000  Level Oakland Center
03:26PM 38.7825 -118.0483 156° South 402 463 41,000  Level Oakland Center
03:27PM 38.6603 -117.9778 156° South 401 461 41,000 -480 Level Oakland Center
03:28PM 38.5564 -117.9167 155° Southeast 401 461 40,100 -960 Descending Oakland Center
03:29PM 38.4550 -117.8583 156° South 399 459 39,100 -1,020 Descending Oakland Center
03:30PM 38.3544 -117.8000 156° South 397 457 38,100 -1,020 Descending Oakland Center
03:31PM 38.2544 -117.7433 156° South 396 456 37,100 -1,020 Descending Oakland Center
03:32PM 38.1522 -117.6861 156° South 403 464 36,100 -1,020 Descending Oakland Center
03:33PM 38.0503 -117.6269 155° Southeast 406 467 35,100 -540 Descending Oakland Center
03:34PM 37.9294 -117.5583 156° South 403 464 35,000 -540 Descending Oakland Center
03:35PM 37.8283 -117.5017 156° South 401 461 34,000 -960 Descending Oakland Center
03:36PM 37.7256 -117.4433 156° South 404 465 33,100 -540 Descending Oakland Center
03:37PM 37.6233 -117.3867 156° South 404 465 33,000 -60 Descending Oakland Center
03:38PM 37.5422 -117.3414 156° South 402 463 33,000  Level Los Angeles Center
03:39PM 37.4411 -117.2853 156° South 399 459 33,000  Level Los Angeles Center
03:41PM 37.3289 -117.1936 147° Southeast 400 460 33,000  Level Oakland Center
03:41PM 37.2375 -117.1139 145° Southeast 401 461 33,000 -60 Level Los Angeles Center
03:42PM 37.1450 -117.0356 146° Southeast 401 461 32,900 -540 Descending Los Angeles Center
03:43PM 37.0525 -116.9578 146° Southeast 400 460 31,900 -900 Descending Los Angeles Center
03:45PM 36.9592 -116.8794 146° Southeast 403 464 30,900 -1,020 Descending Los Angeles Center
03:46PM 36.8492 -116.7875 146° Southeast 398 458 29,700 -1,200 Descending Los Angeles Center
03:47PM 36.7525 -116.6789 138° Southeast 391 450 28,500 -1,140 Descending Los Angeles Center
03:48PM 36.6822 -116.5767 131° Southeast 389 448 27,400 -1,260 Descending Los Angeles Center
03:49PM 36.6111 -116.4764 131° Southeast 387 445 25,900 -1,440 Descending Los Angeles Center
03:50PM 36.5411 -116.3783 132° Southeast 381 438 24,400 -1,380 Descending Los Angeles Center
03:51PM 36.4753 -116.2844 131° Southeast 381 438 22,900 -1,560 Descending Los Angeles Center
03:52PM 36.4108 -116.1967 132° Southeast 373 429 21,500 -2,160 Descending Los Angeles Center
03:52PM 36.3803 -116.1489 128° Southeast 364 419 20,700 -2,040 Descending Los Angeles Center
03:53PM 36.3439 -116.1033 135° Southeast 357 411 19,700 -1,740 Descending Los Angeles Center
03:53PM 36.3175 -116.0614 128° Southeast 342 394 18,900 -1,800 Descending Los Angeles Center
03:54PM 36.2828 -116.0164 134° Southeast 333 383 17,900 -1,860 Descending Los Angeles Center
03:54PM 36.2525 -115.9722 130° Southeast 326 375 17,000 -1,800 Descending Los Angeles Center
03:55PM 36.2242 -115.9314 131° Southeast 329 379 16,100 -1,020 Descending Los Angeles Center
03:55PM 36.1961 -115.8817 125° Southeast 331 381 16,000 -840 Descending Los Angeles Center
03:56PM 36.1761 -115.8272 114° Southeast 330 380 15,300 -1,200 Descending Los Angeles Center
03:56PM 36.1578 -115.7697 112° Southeast 329 379 14,800 -1,020 Descending Los Angeles Center
03:57PM 36.1433 -115.7233 111° Southeast 325 374 14,300 -1,020 Descending Los Angeles Center
03:57PM 36.1250 -115.6678 112° Southeast 322 371 13,800 -900 Descending Los Angeles Center
03:58PM 36.1111 -115.6222 111° Southeast 317 365 13,400 -1,020 Descending Los Angeles Center
03:58PM 36.0911 -115.5603 112° Southeast 313 360 12,800 -1,020 Descending Los Angeles Center
03:59PM 36.0814 -115.5333 114° Southeast 303 349 12,500 -900 Descending Los Angeles Center
03:59PM 36.0614 -115.4683 111° Southeast 290 334 11,900 -900 Descending Los Angeles Center
04:00PM 36.0531 -115.4417 111° Southeast 281 323 11,600 -900 Descending Los Angeles Center
04:00PM 36.0317 -115.3722 111° Southeast 282 325 11,000 -1,020 Descending Los Angeles Center
04:01PM 36.0283 -115.3461 99° East 288 331 10,600 -1,080 Descending Los Angeles Center
04:01PM 36.0242 -115.2786 94° East 275 316 9,900 -1,020 Descending Los Angeles Center
04:02PM 36.0231 -115.2522 93° East 268 308 9,600 -780 Descending Los Angeles Center
04:03PM 36.0183 -115.1983 96° East 256 295 9,000 -900 Descending Los Angeles Center
04:03PM 36.0164 -115.1719 95° East 232 267 8,700 -780 Descending Los Angeles Center
04:04PM 36.0117 -115.1036 95° East 236 272 8,200 -420 Descending Los Angeles Center
04:05PM 36.0236 -115.0367 78° East 204 235 8,000 -240 Descending Los Angeles Center
04:05PM 36.0306 -115.0303 37° Northeast 220 253 8,000 -1,080 Level Los Angeles Center
04:06PM 36.0811 -115.0122 16° North 184 212 6,800 -1,080 Descending Los Angeles Center
04:06PM 36.0794 -115.0092 124° Southeast 194 223 6,900 -1,140 Climbing Los Angeles Center
04:07PM 36.1278 -115.0286 342° North 174 200 5,700 -1,080 Descending Los Angeles Center
04:07PM 36.1278 -115.0228 90° East 187 215 5,800 -780 Climbing Los Angeles Center
04:08PM 36.1286 -115.0817 271° West 156 180 5,000 -780 Descending Los Angeles Center
04:08PM 36.1297 -115.0831 315° West 172 198 5,000 -1,680 Level Los Angeles Center
04:09PM 36.1283 -115.1297 268° West 135 155 3,300 -1,680 Descending Los Angeles Center
04:09PM 36.1289 -115.1297 360° North 148 170 3,300 -1,020 Level Los Angeles Center
04:10PM 36.0992 -115.1553 215° Southwest 119 137 2,300 -900 Descending Los Angeles Center
04:10PM 36.0994 -115.1556 321° Northwest 135 155 2,400 420 Climbing Los Angeles Center
04:12PM 36.0801 -115.1523 270° West  Level Estimated